Terminal Aerodrome Forecast
Issued by NWS Tampa Bay Area, FL

Home | Current Version | Previous Version | Text Only | Print | Product List | Glossary On
Versions: 1 2 3 4 5 6 7 8 9 10 11 12 13 14
000
FTUS42 KTBW 211700
TAFSRQ
TAF
KSRQ 211740Z 2118/2218 26008KT P6SM VCTS SCT035CB BKN250
     FM212100 27008KT P6SM SCT040 BKN250
     FM220000 VRB04KT P6SM FEW040 SCT100 BKN250
     FM220800 VRB03KT P6SM BKN150
     FM221200 VRB04KT P6SM VCSH SCT020 BKN080
     FM221600 22005KT P6SM VCSH SCT020 BKN050=

USA.gov is the U.S. government's official web portal to all federal, state and local government web resources and services.